Time;durP1;ratioP1;P1;durP2;ratioP2;P2;SDS_P1;SDS_P2;PMS_P1;PMS_P2;Temp;Humidity;BMP_temperature;BMP_pressure;BME280_temperature;BME280_humidity;BME280_pressure;Samples;Min_cycle;Max_cycle;Signal;HPM_P1;HPM_P2
2023/05/21 00:01:53;;;;;;;;;;;;;;;12.76;100.00;99874.97;109579;1253;61975;-67
2023/05/21 00:04:20;;;;;;;;;;;;;;;12.73;100.00;99873.81;109554;1254;58906;-67
2023/05/21 00:06:47;;;;;;;;;;;;;;;12.72;100.00;99874.86;109504;1252;73979;-65
2023/05/21 00:09:13;;;;;;;;;;;;;;;12.70;100.00;99874.41;109592;1251;68719;-65
2023/05/21 00:11:40;;;;;;;;;;;;;;;12.68;100.00;99876.58;109577;1251;71923;-69
2023/05/21 00:14:07;;;;;;;;;;;;;;;12.66;100.00;99877.03;109367;1258;58914;-66
2023/05/21 00:16:34;;;;;;;;;;;;;;;12.63;100.00;99874.14;109544;1253;59472;-66
2023/05/21 00:19:01;;;;;;;;;;;;;;;12.60;100.00;99875.38;109554;1251;76019;-66
2023/05/21 00:21:28;;;;;;;;;;;;;;;12.56;100.00;99869.77;109580;1251;68197;-66
2023/05/21 00:23:55;;;;;;;;;;;;;;;12.53;100.00;99874.21;109543;1251;74851;-69
2023/05/21 00:26:23;;;;;;;;;;;;;;;12.50;100.00;99876.72;109580;1253;62402;-65
2023/05/21 00:28:51;;;;;;;;;;;;;;;12.45;100.00;99878.30;109544;1251;60978;-66
2023/05/21 00:31:17;;;;;;;;;;;;;;;12.41;100.00;99875.09;109550;1253;73446;-65
2023/05/21 00:33:44;;;;;;;;;;;;;;;12.36;100.00;99874.14;109598;1251;69282;-63
2023/05/21 00:36:13;;;;;;;;;;;;;;;12.31;100.00;99872.02;109589;1253;74831;-65
2023/05/21 00:38:42;;;;;;;;;;;;;;;12.27;100.00;99870.60;109527;1253;60574;-66
2023/05/21 00:41:09;;;;;;;;;;;;;;;12.22;100.00;99871.35;109438;1255;59722;-65
2023/05/21 00:43:39;;;;;;;;;;;;;;;12.16;100.00;99871.40;109553;1253;76962;-67
2023/05/21 00:46:06;;;;;;;;;;;;;;;12.11;100.00;99876.08;109565;1251;66580;-66
2023/05/21 00:48:33;;;;;;;;;;;;;;;12.06;100.00;99873.10;109534;1253;74990;-65
2023/05/21 00:51:00;;;;;;;;;;;;;;;12.01;100.00;99872.77;109482;1253;62284;-65
2023/05/21 00:53:26;;;;;;;;;;;;;;;11.96;100.00;99876.08;109662;1253;58973;-65
2023/05/21 00:55:53;;;;;;;;;;;;;;;11.90;100.00;99879.37;109526;1251;73457;-66
2023/05/21 00:58:20;;;;;;;;;;;;;;;11.85;100.00;99879.73;109609;1251;68499;-65
2023/05/21 01:00:47;;;;;;;;;;;;;;;11.81;100.00;99879.14;109532;1254;73831;-65
2023/05/21 01:03:15;;;;;;;;;;;;;;;11.77;100.00;99877.58;109371;1259;60223;-65
2023/05/21 01:05:43;;;;;;;;;;;;;;;11.75;100.00;99878.38;109450;1254;59366;-64
2023/05/21 01:08:11;;;;;;;;;;;;;;;11.72;100.00;99875.52;109469;1252;152029;-66
2023/05/21 01:10:38;;;;;;;;;;;;;;;11.69;100.00;99874.20;109552;1251;68944;-66
2023/05/21 01:13:05;;;;;;;;;;;;;;;11.67;100.00;99872.70;109370;1258;73194;-65
2023/05/21 01:15:32;;;;;;;;;;;;;;;11.63;100.00;99872.16;109566;1253;60486;-66
2023/05/21 01:17:58;;;;;;;;;;;;;;;11.60;100.00;99871.52;109537;1251;59090;-65
2023/05/21 01:20:25;;;;;;;;;;;;;;;11.55;100.00;99875.73;109580;1251;75835;-65
2023/05/21 01:22:53;;;;;;;;;;;;;;;11.51;100.00;99873.77;109516;1251;69304;-64
2023/05/21 01:25:20;;;;;;;;;;;;;;;11.46;100.00;99875.66;109444;1254;73231;-65
2023/05/21 01:27:47;;;;;;;;;;;;;;;11.43;100.00;99877.29;109535;1254;61034;-66
2023/05/21 01:30:14;;;;;;;;;;;;;;;11.39;100.00;99872.79;109598;1253;61263;-66
2023/05/21 01:32:43;;;;;;;;;;;;;;;11.35;100.00;99869.46;109596;1252;76092;-67
2023/05/21 01:35:11;;;;;;;;;;;;;;;11.31;100.00;99866.20;109578;1252;68510;-67
2023/05/21 01:37:45;;;;;;;;;;;;;;;11.29;100.00;99866.02;109454;1253;72945;-65
2023/05/21 01:40:13;;;;;;;;;;;;;;;11.25;100.00;99862.16;109360;1251;61101;-66
2023/05/21 01:42:42;;;;;;;;;;;;;;;11.22;100.00;99861.79;109351;1253;62293;-66
2023/05/21 01:45:09;;;;;;;;;;;;;;;11.20;100.00;99861.65;109577;1251;73252;-64
2023/05/21 01:47:36;;;;;;;;;;;;;;;11.18;100.00;99860.05;109500;1253;69437;-65
2023/05/21 01:50:03;;;;;;;;;;;;;;;11.16;100.00;99860.25;109434;1254;75031;-65
2023/05/21 01:52:30;;;;;;;;;;;;;;;11.16;100.00;99862.48;109336;1258;59355;-66
2023/05/21 01:54:58;;;;;;;;;;;;;;;11.16;100.00;99861.41;109590;1251;60869;-66
2023/05/21 01:57:25;;;;;;;;;;;;;;;11.15;100.00;99861.09;109435;1253;77417;-63
2023/05/21 01:59:52;;;;;;;;;;;;;;;11.15;100.00;99868.92;109416;1254;70146;-66
2023/05/21 02:02:20;;;;;;;;;;;;;;;11.15;100.00;99870.14;109364;1251;73145;-66
2023/05/21 02:04:48;;;;;;;;;;;;;;;11.16;100.00;99873.92;109460;1251;61777;-66
2023/05/21 02:07:17;;;;;;;;;;;;;;;11.15;100.00;99875.96;109600;1254;58984;-64
2023/05/21 02:09:43;;;;;;;;;;;;;;;11.14;100.00;99878.46;109612;1251;73566;-66
2023/05/21 02:12:10;;;;;;;;;;;;;;;11.11;100.00;99876.63;109633;1251;70470;-66
2023/05/21 02:14:37;;;;;;;;;;;;;;;11.08;100.00;99880.88;109602;1251;73326;-65
2023/05/21 02:17:04;;;;;;;;;;;;;;;11.04;100.00;99876.71;109555;1254;62455;-65
2023/05/21 02:19:31;;;;;;;;;;;;;;;10.99;100.00;99881.48;109546;1254;58922;-65
2023/05/21 02:21:58;;;;;;;;;;;;;;;10.94;100.00;99880.45;109609;1253;74288;-66
2023/05/21 02:24:24;;;;;;;;;;;;;;;10.90;100.00;99879.30;109624;1251;69245;-65
2023/05/21 02:26:51;;;;;;;;;;;;;;;10.86;100.00;99879.86;109565;1251;74039;-66
2023/05/21 02:29:18;;;;;;;;;;;;;;;10.84;100.00;99885.91;109552;1257;59061;-66
2023/05/21 02:31:45;;;;;;;;;;;;;;;10.83;100.00;99882.48;109480;1254;60725;-66
2023/05/21 02:34:12;;;;;;;;;;;;;;;10.83;100.00;99883.11;109604;1251;76360;-67
2023/05/21 02:36:40;;;;;;;;;;;;;;;10.82;100.00;99887.60;109576;1251;69295;-65
2023/05/21 02:39:07;;;;;;;;;;;;;;;10.82;100.00;99884.20;109585;1254;74154;-65
2023/05/21 02:41:34;;;;;;;;;;;;;;;10.82;100.00;99885.63;109608;1251;63852;-64
2023/05/21 02:44:01;;;;;;;;;;;;;;;10.83;100.00;99889.77;109505;1254;61046;-65
2023/05/21 02:46:27;;;;;;;;;;;;;;;10.85;100.00;99889.77;109413;1252;74159;-66
2023/05/21 02:48:54;;;;;;;;;;;;;;;10.87;100.00;99891.14;109432;1254;67533;-65
2023/05/21 02:51:21;;;;;;;;;;;;;;;10.89;100.00;99892.89;109549;1251;71355;-66
2023/05/21 02:53:48;;;;;;;;;;;;;;;10.91;100.00;99890.11;109347;1254;60259;-65
2023/05/21 02:56:16;;;;;;;;;;;;;;;10.97;100.00;99894.86;109579;1254;61442;-64
2023/05/21 02:58:43;;;;;;;;;;;;;;;11.03;100.00;99900.37;109456;1254;74872;-65
2023/05/21 03:01:10;;;;;;;;;;;;;;;11.12;100.00;99900.45;109619;1254;69908;-65
2023/05/21 03:03:36;;;;;;;;;;;;;;;11.22;100.00;99896.74;109376;1251;72772;-65
2023/05/21 03:06:03;;;;;;;;;;;;;;;11.35;100.00;99901.52;109368;1254;60934;-66
2023/05/21 03:08:31;;;;;;;;;;;;;;;11.52;100.00;99903.46;109643;1253;58961;-64
2023/05/21 03:10:57;;;;;;;;;;;;;;;11.67;100.00;99905.35;109591;1251;74545;-65
2023/05/21 03:13:24;;;;;;;;;;;;;;;11.77;100.00;99901.73;109420;1252;68706;-64
2023/05/21 03:15:55;;;;;;;;;;;;;;;11.87;100.00;99895.94;109556;1254;74047;-65
2023/05/21 03:18:22;;;;;;;;;;;;;;;11.99;100.00;99897.54;109573;1253;60644;-66
2023/05/21 03:20:48;;;;;;;;;;;;;;;12.13;100.00;99896.98;109408;1254;62723;-67
2023/05/21 03:23:15;;;;;;;;;;;;;;;12.28;100.00;99898.67;109623;1251;74260;-65
2023/05/21 03:25:42;;;;;;;;;;;;;;;12.43;100.00;99896.52;109407;1254;69682;-66
2023/05/21 03:28:09;;;;;;;;;;;;;;;12.59;100.00;99901.68;109398;1254;72842;-66
2023/05/21 03:30:45;;;;;;;;;;;;;;;12.77;100.00;99899.19;109344;1253;58940;-66
2023/05/21 03:33:30;;;;;;;;;;;;;;;13.01;100.00;99903.25;109631;1254;60195;-65
2023/05/21 03:35:57;;;;;;;;;;;;;;;13.21;100.00;99898.04;109448;1253;74094;-66
2023/05/21 03:38:25;;;;;;;;;;;;;;;13.39;100.00;99898.12;109406;1253;70304;-65
2023/05/21 03:40:53;;;;;;;;;;;;;;;13.54;100.00;99892.22;109373;1253;71706;-65
2023/05/21 03:43:20;;;;;;;;;;;;;;;13.71;100.00;99892.92;109397;1254;59692;-66
2023/05/21 03:45:47;;;;;;;;;;;;;;;13.87;100.00;99891.73;109390;1253;59922;-66
2023/05/21 03:48:41;;;;;;;;;;;;;;;14.01;100.00;99894.29;109425;1253;75261;-65
2023/05/21 03:51:09;;;;;;;;;;;;;;;14.14;100.00;99889.17;109472;1254;69712;-66
2023/05/21 03:53:35;;;;;;;;;;;;;;;14.28;100.00;99891.50;109515;1251;73560;-66
2023/05/21 03:56:02;;;;;;;;;;;;;;;14.44;100.00;99889.98;109428;1254;60509;-66
2023/05/21 03:58:29;;;;;;;;;;;;;;;14.60;100.00;99891.52;109449;1254;60830;-65
2023/05/21 04:00:57;;;;;;;;;;;;;;;14.76;100.00;99889.05;109405;1254;76537;-66
2023/05/21 04:03:24;;;;;;;;;;;;;;;14.98;100.00;99885.84;109573;1251;69717;-66
2023/05/21 04:05:51;;;;;;;;;;;;;;;15.21;100.00;99883.95;109380;1254;72434;-65
2023/05/21 04:08:18;;;;;;;;;;;;;;;15.49;100.00;99883.02;109544;1253;60773;-65
2023/05/21 04:10:46;;;;;;;;;;;;;;;15.78;100.00;99881.95;109561;1254;60976;-64
2023/05/21 04:13:14;;;;;;;;;;;;;;;16.08;100.00;99878.86;109570;1253;76812;-64
2023/05/21 04:15:42;;;;;;;;;;;;;;;16.37;100.00;99881.81;109461;1251;66977;-66
2023/05/21 04:18:09;;;;;;;;;;;;;;;16.69;100.00;99880.31;109433;1254;72556;-71
2023/05/21 04:20:36;;;;;;;;;;;;;;;17.07;99.99;99881.33;109409;1254;60397;-67
2023/05/21 04:23:03;;;;;;;;;;;;;;;17.43;97.76;99880.00;109386;1253;58987;-67
2023/05/21 04:25:30;;;;;;;;;;;;;;;17.73;94.89;99880.31;109378;1251;73534;-69
2023/05/21 04:27:57;;;;;;;;;;;;;;;17.94;92.01;99873.77;109483;1254;68999;-64
2023/05/21 04:30:24;;;;;;;;;;;;;;;18.15;91.06;99874.65;109594;1252;73632;-65
2023/05/21 04:32:53;;;;;;;;;;;;;;;18.35;88.45;99870.70;109500;1253;61940;-66
2023/05/21 04:35:20;;;;;;;;;;;;;;;18.50;86.11;99864.61;109491;1253;62478;-69
2023/05/21 04:37:47;;;;;;;;;;;;;;;18.66;84.97;99866.85;109553;1254;73502;-66
2023/05/21 04:40:17;;;;;;;;;;;;;;;18.82;82.96;99866.08;109426;1251;70323;-67
2023/05/21 04:42:50;;;;;;;;;;;;;;;18.92;81.04;99866.70;109498;1252;75861;-66
2023/05/21 04:45:17;;;;;;;;;;;;;;;19.01;79.51;99867.07;109330;1259;61932;-67
2023/05/21 04:47:44;;;;;;;;;;;;;;;19.12;79.94;99862.98;109433;1254;59051;-64
2023/05/21 04:50:11;;;;;;;;;;;;;;;19.35;77.98;99861.08;109397;1251;73042;-62
2023/05/21 04:52:39;;;;;;;;;;;;;;;19.48;75.64;99858.92;109552;1251;68664;-65
2023/05/21 04:55:06;;;;;;;;;;;;;;;19.54;74.06;99854.73;109525;1253;72788;-65
2023/05/21 04:57:33;;;;;;;;;;;;;;;19.58;73.92;99853.90;109360;1251;62559;-65
2023/05/21 04:59:59;;;;;;;;;;;;;;;19.68;72.89;99852.63;109328;1259;61817;-67
2023/05/21 05:02:27;;;;;;;;;;;;;;;19.80;72.13;99850.41;109494;1254;75153;-66
2023/05/21 05:04:54;;;;;;;;;;;;;;;19.93;71.16;99852.66;109545;1251;70011;-66
2023/05/21 05:07:21;;;;;;;;;;;;;;;20.08;70.95;99848.52;109477;1253;72573;-65
2023/05/21 05:09:48;;;;;;;;;;;;;;;20.32;69.73;99848.48;109543;1253;62245;-65
2023/05/21 05:12:15;;;;;;;;;;;;;;;20.52;68.34;99844.64;109410;1251;61800;-66
2023/05/21 05:14:42;;;;;;;;;;;;;;;20.78;67.41;99844.77;109388;1254;74788;-66
2023/05/21 05:17:13;;;;;;;;;;;;;;;21.03;64.88;99839.68;109357;1253;68399;-66
2023/05/21 05:19:41;;;;;;;;;;;;;;;21.26;63.65;99838.70;109432;1251;72384;-67
2023/05/21 05:22:09;;;;;;;;;;;;;;;21.50;62.45;99843.66;109345;1254;61442;-65
2023/05/21 05:24:38;;;;;;;;;;;;;;;21.74;60.38;99843.98;109392;1251;60568;-65
2023/05/21 05:27:05;;;;;;;;;;;;;;;21.91;58.13;99841.98;109563;1254;74598;-65
2023/05/21 05:29:32;;;;;;;;;;;;;;;21.97;56.71;99841.64;109563;1251;70315;-65
2023/05/21 05:31:59;;;;;;;;;;;;;;;22.01;56.69;99843.80;109555;1251;71718;-67
2023/05/21 05:34:25;;;;;;;;;;;;;;;22.11;55.53;99843.44;109490;1254;61796;-67
2023/05/21 05:36:52;;;;;;;;;;;;;;;22.18;53.69;99833.77;109381;1251;60238;-67
2023/05/21 05:39:19;;;;;;;;;;;;;;;22.23;53.69;99835.89;109557;1251;76087;-67
2023/05/21 05:41:46;;;;;;;;;;;;;;;22.35;51.73;99832.58;109347;1251;67233;-63
2023/05/21 05:44:13;;;;;;;;;;;;;;;22.40;52.12;99836.56;109404;1251;72535;-65
2023/05/21 05:46:42;;;;;;;;;;;;;;;22.48;52.17;99838.27;109398;1254;60866;-65
2023/05/21 05:49:09;;;;;;;;;;;;;;;22.67;50.96;99838.62;109466;1251;60797;-64
2023/05/21 05:51:36;;;;;;;;;;;;;;;22.74;49.12;99838.70;109553;1251;76775;-65
2023/05/21 05:54:02;;;;;;;;;;;;;;;22.69;48.91;99837.69;109344;1251;69318;-66
2023/05/21 05:56:29;;;;;;;;;;;;;;;22.70;48.98;99833.64;109424;1257;74637;-65
2023/05/21 05:58:57;;;;;;;;;;;;;;;22.82;48.93;99835.66;109463;1251;61682;-65
2023/05/21 06:01:25;;;;;;;;;;;;;;;22.93;48.12;99830.58;109536;1253;60177;-68
2023/05/21 06:03:51;;;;;;;;;;;;;;;23.04;47.53;99833.70;109460;1253;76115;-66
2023/05/21 06:06:19;;;;;;;;;;;;;;;23.17;45.90;99831.41;109425;1251;69580;-67
2023/05/21 06:08:46;;;;;;;;;;;;;;;23.26;44.67;99830.66;109465;1252;72237;-65
2023/05/21 06:11:15;;;;;;;;;;;;;;;23.38;44.01;99833.34;109550;1252;60448;-70
2023/05/21 06:13:43;;;;;;;;;;;;;;;23.46;43.46;99830.70;109303;1253;60846;-68
2023/05/21 06:16:10;;;;;;;;;;;;;;;23.53;42.64;99830.02;109452;1251;75982;-70
2023/05/21 06:18:37;;;;;;;;;;;;;;;23.77;42.93;99824.70;109453;1251;66800;-67
2023/05/21 06:21:04;;;;;;;;;;;;;;;24.01;40.22;99818.52;109528;1251;71680;-68
2023/05/21 06:23:31;;;;;;;;;;;;;;;24.09;39.02;99812.50;109549;1251;60990;-68
2023/05/21 06:25:58;;;;;;;;;;;;;;;24.11;38.54;99814.60;109410;1253;60367;-67
2023/05/21 06:28:25;;;;;;;;;;;;;;;24.25;38.18;99810.52;109517;1254;76800;-67
2023/05/21 06:30:52;;;;;;;;;;;;;;;24.36;36.83;99804.90;109486;1251;69884;-66
2023/05/21 06:33:20;;;;;;;;;;;;;;;24.31;36.43;99803.09;109342;1254;73534;-67
2023/05/21 06:35:47;;;;;;;;;;;;;;;24.29;36.09;99800.94;109523;1252;62603;-65
2023/05/21 06:38:14;;;;;;;;;;;;;;;24.43;35.13;99801.99;109530;1253;60742;-66
2023/05/21 06:40:43;;;;;;;;;;;;;;;24.56;34.80;99797.59;109440;1253;74484;-65
2023/05/21 06:43:11;;;;;;;;;;;;;;;24.64;34.31;99802.92;109327;1251;66841;-68
2023/05/21 06:45:57;;;;;;;;;;;;;;;24.71;34.23;99797.39;109487;1251;74165;-66
2023/05/21 06:48:36;;;;;;;;;;;;;;;24.79;33.85;99793.81;109388;1254;62008;-67
2023/05/21 06:51:04;;;;;;;;;;;;;;;24.78;32.98;99788.58;109579;1251;60234;-66
2023/05/21 06:53:32;;;;;;;;;;;;;;;24.77;32.53;99787.41;109414;1253;76459;-68
2023/05/21 06:55:59;;;;;;;;;;;;;;;24.83;31.88;99788.69;109505;1251;69566;-64
2023/05/21 06:58:34;;;;;;;;;;;;;;;24.80;32.28;99782.77;109476;1252;71050;-68
2023/05/21 07:01:01;;;;;;;;;;;;;;;24.71;31.88;99782.98;109543;1251;61200;-65
2023/05/21 07:03:28;;;;;;;;;;;;;;;24.71;31.72;99776.40;109379;1251;60562;-63
2023/05/21 07:05:56;;;;;;;;;;;;;;;24.82;31.78;99777.85;109527;1251;76011;-64
2023/05/21 07:08:22;;;;;;;;;;;;;;;25.03;31.19;99775.79;109539;1251;69988;-65
2023/05/21 07:10:55;;;;;;;;;;;;;;;25.28;30.04;99775.44;109485;1254;74998;-66
2023/05/21 07:13:23;;;;;;;;;;;;;;;25.36;29.24;99771.10;109264;1254;61240;-64
2023/05/21 07:15:50;;;;;;;;;;;;;;;25.33;29.49;99774.61;109389;1253;62785;-67
2023/05/21 07:18:17;;;;;;;;;;;;;;;25.28;29.23;99772.54;109282;1251;75854;-65
2023/05/21 07:20:44;;;;;;;;;;;;;;;25.29;29.36;99771.69;109539;1251;68780;-66
2023/05/21 07:23:13;;;;;;;;;;;;;;;25.38;29.13;99763.23;109339;1251;73521;-65
2023/05/21 07:25:39;;;;;;;;;;;;;;;25.62;29.60;99762.40;109380;1253;60931;-66
2023/05/21 07:28:06;;;;;;;;;;;;;;;25.95;29.48;99759.41;109495;1253;58918;-64
2023/05/21 07:30:34;;;;;;;;;;;;;;;26.15;29.25;99750.77;109477;1252;73570;-65
2023/05/21 07:33:01;;;;;;;;;;;;;;;26.31;29.17;99752.86;109431;1251;68115;-66
2023/05/21 07:35:28;;;;;;;;;;;;;;;26.48;28.82;99753.54;109304;1253;74785;-66
2023/05/21 07:37:55;;;;;;;;;;;;;;;26.68;28.70;99752.41;109362;1252;61557;-65
2023/05/21 07:40:22;;;;;;;;;;;;;;;26.92;28.03;99754.77;109493;1252;60849;-68
2023/05/21 07:42:49;;;;;;;;;;;;;;;27.07;27.39;99749.56;109517;1253;75658;-66
2023/05/21 07:45:17;;;;;;;;;;;;;;;27.19;27.97;99742.86;109376;1253;70183;-65
2023/05/21 07:47:43;;;;;;;;;;;;;;;27.40;28.05;99747.30;109557;1253;73907;-66
2023/05/21 07:50:11;;;;;;;;;;;;;;;27.55;27.21;99747.10;109420;1251;62328;-69
2023/05/21 07:52:37;;;;;;;;;;;;;;;27.61;26.33;99745.89;109354;1254;60437;-66
2023/05/21 07:55:05;;;;;;;;;;;;;;;27.56;26.11;99737.96;109454;1251;76460;-65
2023/05/21 07:57:34;;;;;;;;;;;;;;;27.52;26.25;99735.89;109534;1251;68457;-64
2023/05/21 08:00:08;;;;;;;;;;;;;;;27.55;26.36;99734.73;109329;1251;72614;-66
2023/05/21 08:02:40;;;;;;;;;;;;;;;27.73;25.83;99735.98;109437;1251;62149;-68
2023/05/21 08:05:09;;;;;;;;;;;;;;;27.88;25.90;99736.39;109482;1251;61062;-65
2023/05/21 08:07:36;;;;;;;;;;;;;;;28.06;25.11;99733.67;109384;1251;76304;-67
2023/05/21 08:10:03;;;;;;;;;;;;;;;28.09;25.17;99728.72;109436;1254;69938;-67
2023/05/21 08:12:30;;;;;;;;;;;;;;;28.03;25.43;99728.12;109367;1251;73279;-63
2023/05/21 08:14:58;;;;;;;;;;;;;;;27.99;25.23;99727.44;109378;1251;60488;-65
2023/05/21 08:17:27;;;;;;;;;;;;;;;28.02;26.17;99726.74;109451;1252;62386;-63
2023/05/21 08:19:54;;;;;;;;;;;;;;;28.32;26.07;99724.67;109407;1251;74780;-65
2023/05/21 08:22:20;;;;;;;;;;;;;;;28.71;25.51;99726.68;109541;1255;70185;-62
2023/05/21 08:24:48;;;;;;;;;;;;;;;29.01;24.85;99727.16;109546;1251;72455;-64
2023/05/21 08:27:15;;;;;;;;;;;;;;;29.15;24.34;99732.48;109348;1254;60229;-69
2023/05/21 08:29:41;;;;;;;;;;;;;;;29.17;24.01;99729.79;109253;1253;60613;-64
2023/05/21 08:32:09;;;;;;;;;;;;;;;29.04;23.82;99725.11;109449;1253;76616;-63
2023/05/21 08:34:36;;;;;;;;;;;;;;;28.89;23.80;99721.56;109447;1252;67397;-64
2023/05/21 08:37:23;;;;;;;;;;;;;;;29.02;24.28;99717.67;109449;1252;73902;-65
2023/05/21 08:40:12;;;;;;;;;;;;;;;29.28;23.86;99719.86;109472;1251;62328;-65
2023/05/21 08:42:44;;;;;;;;;;;;;;;29.41;23.75;99714.00;109479;1254;59187;-62
2023/05/21 08:45:21;;;;;;;;;;;;;;;29.35;23.31;99716.23;109514;1254;76830;-64
2023/05/21 08:47:52;;;;;;;;;;;;;;;29.41;23.41;99718.11;109411;1251;69600;-67
2023/05/21 08:50:19;;;;;;;;;;;;;;;29.71;23.22;99715.35;109439;1251;73504;-68
2023/05/21 08:52:46;;;;;;;;;;;;;;;29.97;23.06;99713.90;109388;1254;59953;-69
2023/05/21 08:55:12;;;;;;;;;;;;;;;30.21;23.14;99703.96;109252;1253;61463;-68
2023/05/21 08:57:41;;;;;;;;;;;;;;;30.31;22.73;99707.77;109355;1252;76151;-65
2023/05/21 09:00:08;;;;;;;;;;;;;;;30.31;22.62;99704.42;109324;1251;69415;-66
2023/05/21 09:06:16;;;;;;;;;;;;;;;30.42;22.89;99701.63;109594;1251;60014;-60
2023/05/21 09:08:46;;;;;;;;;;;;;;;30.62;22.72;99707.44;109360;1252;61136;-59
2023/05/21 09:11:30;;;;;;;;;;;;;;;30.86;22.20;99712.75;109528;1251;74548;-59
2023/05/21 09:13:57;;;;;;;;;;;;;;;30.96;21.69;99716.69;109317;1254;71157;-62
2023/05/21 09:16:30;;;;;;;;;;;;;;;30.97;21.25;99708.27;109473;1254;72684;-60
2023/05/21 09:18:57;;;;;;;;;;;;;;;30.92;21.43;99699.17;109443;1253;62543;-60
2023/05/21 09:21:28;;;;;;;;;;;;;;;30.80;21.57;99702.61;109344;1253;61468;-60
2023/05/21 09:23:58;;;;;;;;;;;;;;;30.76;21.72;99699.93;109476;1251;74357;-57
2023/05/21 09:26:25;;;;;;;;;;;;;;;30.94;22.06;99692.92;109562;1251;69022;-58
2023/05/21 09:28:55;;;;;;;;;;;;;;;31.26;21.77;99687.52;109419;1253;73991;-61
2023/05/21 09:31:22;;;;;;;;;;;;;;;31.34;20.94;99693.54;109490;1253;62321;-61
2023/05/21 09:33:49;;;;;;;;;;;;;;;31.17;21.34;99691.68;109520;1253;60648;-62
2023/05/21 09:36:19;;;;;;;;;;;;;;;31.31;21.29;99688.98;109446;1252;74790;-63
2023/05/21 09:38:50;;;;;;;;;;;;;;;31.39;21.38;99687.13;109596;1252;69367;-62
2023/05/21 09:41:17;;;;;;;;;;;;;;;31.60;21.47;99685.73;109616;1251;71666;-61
2023/05/21 09:43:48;;;;;;;;;;;;;;;31.97;20.89;99678.05;109449;1252;61692;-64
2023/05/21 09:46:19;;;;;;;;;;;;;;;32.12;19.43;99686.21;109449;1251;62164;-61
2023/05/21 09:48:46;;;;;;;;;;;;;;;31.97;19.72;99680.58;109412;1251;74184;-63
2023/05/21 09:51:14;;;;;;;;;;;;;;;31.87;20.22;99674.59;109547;1251;69318;-66
2023/05/21 09:53:52;;;;;;;;;;;;;;;32.05;20.50;99670.73;109555;1251;73331;-63
2023/05/21 09:56:21;;;;;;;;;;;;;;;32.46;20.58;99669.00;109454;1251;59779;-64
2023/05/21 09:58:50;;;;;;;;;;;;;;;32.81;19.58;99677.40;109618;1251;61256;-63
2023/05/21 10:01:18;;;;;;;;;;;;;;;32.82;18.96;99676.21;109469;1251;74938;-63
2023/05/21 10:03:47;;;;;;;;;;;;;;;32.60;19.40;99674.30;109481;1253;68250;-66
2023/05/21 10:06:16;;;;;;;;;;;;;;;32.57;19.18;99675.86;109595;1251;72831;-66
2023/05/21 10:08:43;;;;;;;;;;;;;;;32.56;19.16;99676.15;109536;1251;62382;-69
2023/05/21 10:11:10;;;;;;;;;;;;;;;32.49;18.09;99676.41;109520;1251;62428;-63
2023/05/21 10:13:38;;;;;;;;;;;;;;;32.24;18.38;99671.17;109607;1251;75763;-65
2023/05/21 10:16:05;;;;;;;;;;;;;;;32.05;18.53;99663.85;109430;1251;68590;-67
2023/05/21 10:18:32;;;;;;;;;;;;;;;31.76;18.86;99665.08;109499;1253;73318;-69
2023/05/21 10:20:59;;;;;;;;;;;;;;;31.47;19.02;99661.31;109439;1253;61738;-68
2023/05/21 10:23:26;;;;;;;;;;;;;;;31.36;19.37;99664.59;109531;1253;61017;-69
2023/05/21 10:25:53;;;;;;;;;;;;;;;31.40;19.68;99658.90;109526;1251;74992;-69
2023/05/21 10:28:19;;;;;;;;;;;;;;;31.45;19.01;99652.52;109465;1254;69380;-71
2023/05/21 10:30:46;;;;;;;;;;;;;;;31.45;19.10;99650.75;109401;1251;73058;-68
2023/05/21 10:33:16;;;;;;;;;;;;;;;31.16;19.67;99657.02;109466;1253;60712;-70
2023/05/21 10:35:43;;;;;;;;;;;;;;;30.52;19.85;99661.94;109643;1253;61507;-66
2023/05/21 10:38:10;;;;;;;;;;;;;;;29.47;20.23;99661.64;109557;1251;74746;-67
2023/05/21 10:40:37;;;;;;;;;;;;;;;28.47;21.52;99665.29;109523;1251;70069;-69
2023/05/21 10:43:04;;;;;;;;;;;;;;;27.65;22.62;99659.04;109395;1252;74607;-68
2023/05/21 10:45:50;;;;;;;;;;;;;;;27.12;23.42;99655.70;109509;1253;60767;-69
2023/05/21 10:48:46;;;;;;;;;;;;;;;26.46;23.69;99653.95;109434;1251;60063;-70
2023/05/21 10:51:19;;;;;;;;;;;;;;;25.82;24.52;99658.94;109020;1251;75512;-67
2023/05/21 10:53:51;;;;;;;;;;;;;;;25.34;24.67;99661.89;109487;1251;68860;-67
2023/05/21 10:56:21;;;;;;;;;;;;;;;24.94;24.77;99662.94;109582;1251;74713;-65
2023/05/21 10:59:07;;;;;;;;;;;;;;;24.61;25.90;99656.71;109515;1252;60978;-65
2023/05/21 11:01:35;;;;;;;;;;;;;;;24.30;26.58;99663.17;109519;1253;59467;-69
2023/05/21 11:04:05;;;;;;;;;;;;;;;24.06;27.09;99664.69;109546;1251;74249;-66
2023/05/21 11:06:32;;;;;;;;;;;;;;;23.89;26.58;99661.24;109630;1251;67056;-64
2023/05/21 11:09:00;;;;;;;;;;;;;;;23.78;27.22;99657.73;109517;1251;74068;-67
2023/05/21 11:11:47;;;;;;;;;;;;;;;23.70;27.86;99661.38;109482;1253;62300;-65
2023/05/21 11:14:35;;;;;;;;;;;;;;;23.61;28.02;99650.48;109530;1251;61269;-66
2023/05/21 11:17:05;;;;;;;;;;;;;;;23.51;29.03;99643.77;109471;1251;75183;-67
2023/05/21 11:19:42;;;;;;;;;;;;;;;23.45;29.19;99646.30;109566;1251;69048;-66
2023/05/21 11:22:29;;;;;;;;;;;;;;;23.36;28.71;99652.02;109537;1251;74436;-66
2023/05/21 11:24:57;;;;;;;;;;;;;;;23.22;28.76;99649.13;109588;1252;61950;-66
2023/05/21 11:27:36;;;;;;;;;;;;;;;23.09;28.93;99645.34;109530;1253;60989;-67
2023/05/21 11:30:30;;;;;;;;;;;;;;;23.00;29.05;99646.55;109525;1251;76016;-67
2023/05/21 11:33:08;;;;;;;;;;;;;;;22.96;29.68;99646.70;109534;1253;69287;-67
2023/05/21 11:35:44;;;;;;;;;;;;;;;22.96;29.43;99649.47;109531;1251;72815;-66
2023/05/21 11:38:11;;;;;;;;;;;;;;;22.85;29.30;99643.48;109477;1253;61817;-67
2023/05/21 11:40:48;;;;;;;;;;;;;;;22.77;29.61;99639.28;109669;1254;61401;-67
2023/05/21 11:43:15;;;;;;;;;;;;;;;22.71;29.78;99639.01;109538;1251;77037;-66
2023/05/21 11:45:45;;;;;;;;;;;;;;;22.70;29.86;99633.24;109411;1252;69946;-67
2023/05/21 11:48:13;;;;;;;;;;;;;;;22.68;30.12;99635.38;109488;1251;70958;-66
2023/05/21 11:50:41;;;;;;;;;;;;;;;22.68;29.89;99634.19;109524;1253;62018;-67
2023/05/21 11:53:08;;;;;;;;;;;;;;;22.66;30.02;99635.13;109452;1252;60539;-69
2023/05/21 11:55:42;;;;;;;;;;;;;;;22.60;30.35;99632.98;109450;1252;75630;-69
2023/05/21 11:58:12;;;;;;;;;;;;;;;22.48;30.33;99625.22;109544;1251;69786;-70
2023/05/21 12:00:39;;;;;;;;;;;;;;;22.36;30.75;99622.59;109469;1251;71664;-69
2023/05/21 12:03:07;;;;;;;;;;;;;;;22.30;30.77;99620.55;109486;1251;62337;-71
2023/05/21 12:05:44;;;;;;;;;;;;;;;22.27;31.23;99622.44;109580;1251;61011;-70
2023/05/21 12:08:11;;;;;;;;;;;;;;;22.25;30.64;99623.59;109531;1251;75113;-68
2023/05/21 12:10:38;;;;;;;;;;;;;;;22.18;30.31;99625.27;109516;1253;68722;-68
2023/05/21 12:13:05;;;;;;;;;;;;;;;22.06;30.33;99626.70;109557;1251;74952;-70
2023/05/21 12:15:32;;;;;;;;;;;;;;;21.89;31.48;99626.05;109501;1253;61145;-70
2023/05/21 12:17:59;;;;;;;;;;;;;;;21.83;31.07;99622.03;109424;1253;60330;-70
2023/05/21 12:20:27;;;;;;;;;;;;;;;21.74;30.80;99622.99;109438;1251;74601;-70
2023/05/21 12:22:55;;;;;;;;;;;;;;;21.66;31.36;99619.66;109501;1251;69198;-73
2023/05/21 12:25:22;;;;;;;;;;;;;;;21.63;31.59;99617.51;109560;1251;74770;-69
2023/05/21 12:27:56;;;;;;;;;;;;;;;21.63;31.31;99613.39;109451;1253;61187;-72
2023/05/21 12:30:24;;;;;;;;;;;;;;;21.62;31.64;99618.77;109615;1252;61846;-71
2023/05/21 12:32:51;;;;;;;;;;;;;;;21.63;31.32;99614.89;109508;1251;76782;-71
2023/05/21 12:35:21;;;;;;;;;;;;;;;21.59;31.23;99619.64;109422;1251;70010;-72
2023/05/21 12:37:49;;;;;;;;;;;;;;;21.56;31.49;99618.12;109566;1251;74245;-71
2023/05/21 12:40:16;;;;;;;;;;;;;;;21.55;31.78;99616.52;109511;1253;62168;-71
2023/05/21 12:42:43;;;;;;;;;;;;;;;21.56;31.90;99610.64;109503;1253;58964;-71
2023/05/21 12:45:10;;;;;;;;;;;;;;;21.54;31.74;99607.19;109512;1253;76287;-72